sensor_id;sensor_type;location;lat;lon;timestamp;pressure;altitude;pressure_sealevel;temperature;humidity
51099;BME280;37146;48.210;16.234;2023-07-02T00:01:58;97944.00;;;16.85;94.60
51099;BME280;37146;48.210;16.234;2023-07-02T00:04:23;97950.81;;;16.99;96.41
51099;BME280;37146;48.210;16.234;2023-07-02T00:06:48;97949.13;;;16.79;98.72
51099;BME280;37146;48.210;16.234;2023-07-02T00:09:14;97943.41;;;16.92;100.00
51099;BME280;37146;48.210;16.234;2023-07-02T00:11:41;97942.00;;;16.97;98.23
51099;BME280;37146;48.210;16.234;2023-07-02T00:14:06;97937.19;;;16.81;100.00
51099;BME280;37146;48.210;16.234;2023-07-02T00:16:32;97937.19;;;16.72;100.00
51099;BME280;37146;48.210;16.234;2023-07-02T00:18:58;97936.63;;;16.68;100.00
51099;BME280;37146;48.210;16.234;2023-07-02T00:21:25;97943.78;;;16.49;100.00
51099;BME280;37146;48.210;16.234;2023-07-02T00:23:53;97939.22;;;16.60;100.00
51099;BME280;37146;48.210;16.234;2023-07-02T00:26:18;97934.69;;;16.41;100.00
51099;BME280;37146;48.210;16.234;2023-07-02T00:28:43;97942.34;;;16.45;100.00
51099;BME280;37146;48.210;16.234;2023-07-02T00:31:09;97945.34;;;16.42;100.00
51099;BME280;37146;48.210;16.234;2023-07-02T00:33:34;97944.31;;;16.43;100.00
51099;BME280;37146;48.210;16.234;2023-07-02T00:35:59;97948.59;;;16.46;100.00
51099;BME280;37146;48.210;16.234;2023-07-02T00:38:25;97943.19;;;16.26;100.00
51099;BME280;37146;48.210;16.234;2023-07-02T00:40:51;97946.63;;;16.38;100.00
51099;BME280;37146;48.210;16.234;2023-07-02T00:43:16;97952.28;;;16.35;100.00
51099;BME280;37146;48.210;16.234;2023-07-02T00:45:41;97953.72;;;16.29;100.00
51099;BME280;37146;48.210;16.234;2023-07-02T00:48:06;97950.28;;;16.27;100.00
51099;BME280;37146;48.210;16.234;2023-07-02T00:50:32;97953.28;;;16.24;100.00
51099;BME280;37146;48.210;16.234;2023-07-02T00:52:57;97952.56;;;16.22;100.00
51099;BME280;37146;48.210;16.234;2023-07-02T00:55:22;97951.88;;;16.20;100.00
51099;BME280;37146;48.210;16.234;2023-07-02T00:57:47;97948.88;;;16.13;100.00
51099;BME280;37146;48.210;16.234;2023-07-02T01:00:13;97953.13;;;16.06;100.00
51099;BME280;37146;48.210;16.234;2023-07-02T01:02:38;97959.78;;;16.02;100.00
51099;BME280;37146;48.210;16.234;2023-07-02T01:05:08;97950.97;;;16.00;100.00
51099;BME280;37146;48.210;16.234;2023-07-02T01:07:33;97951.97;;;15.99;100.00
51099;BME280;37146;48.210;16.234;2023-07-02T01:09:58;97954.41;;;16.02;100.00
51099;BME280;37146;48.210;16.234;2023-07-02T01:12:23;97949.56;;;15.96;100.00
51099;BME280;37146;48.210;16.234;2023-07-02T01:14:51;97958.22;;;15.89;100.00
51099;BME280;37146;48.210;16.234;2023-07-02T01:17:17;97962.91;;;15.97;100.00
51099;BME280;37146;48.210;16.234;2023-07-02T01:19:50;97963.91;;;15.96;100.00
51099;BME280;37146;48.210;16.234;2023-07-02T01:22:21;97955.13;;;16.04;100.00
51099;BME280;37146;48.210;16.234;2023-07-02T01:24:47;97956.81;;;16.05;100.00
51099;BME280;37146;48.210;16.234;2023-07-02T01:27:13;97961.78;;;16.00;100.00
51099;BME280;37146;48.210;16.234;2023-07-02T01:29:39;97958.81;;;16.03;100.00
51099;BME280;37146;48.210;16.234;2023-07-02T01:32:05;97953.00;;;15.98;100.00
51099;BME280;37146;48.210;16.234;2023-07-02T01:34:30;97958.22;;;15.89;100.00
51099;BME280;37146;48.210;16.234;2023-07-02T01:36:56;97966.97;;;15.82;100.00
51099;BME280;37146;48.210;16.234;2023-07-02T01:39:21;97964.41;;;15.80;100.00
51099;BME280;37146;48.210;16.234;2023-07-02T01:41:50;97966.44;;;15.88;100.00
51099;BME280;37146;48.210;16.234;2023-07-02T01:44:16;97962.69;;;15.79;100.00
51099;BME280;37146;48.210;16.234;2023-07-02T01:46:41;97960.69;;;15.61;100.00
51099;BME280;37146;48.210;16.234;2023-07-02T01:49:06;97954.72;;;15.68;100.00
51099;BME280;37146;48.210;16.234;2023-07-02T01:51:32;97959.13;;;15.59;100.00
51099;BME280;37146;48.210;16.234;2023-07-02T01:53:57;97957.41;;;15.58;100.00
51099;BME280;37146;48.210;16.234;2023-07-02T01:56:22;97953.84;;;15.48;100.00
51099;BME280;37146;48.210;16.234;2023-07-02T01:58:48;97949.03;;;15.51;100.00
51099;BME280;37146;48.210;16.234;2023-07-02T02:01:13;97949.28;;;15.48;100.00
51099;BME280;37146;48.210;16.234;2023-07-02T02:03:38;97956.06;;;15.42;100.00
51099;BME280;37146;48.210;16.234;2023-07-02T02:06:03;97950.34;;;15.26;100.00
51099;BME280;37146;48.210;16.234;2023-07-02T02:08:28;97958.28;;;15.27;100.00
51099;BME280;37146;48.210;16.234;2023-07-02T02:10:54;97951.34;;;15.35;100.00
51099;BME280;37146;48.210;16.234;2023-07-02T02:13:19;97951.50;;;15.33;100.00
51099;BME280;37146;48.210;16.234;2023-07-02T02:15:44;97954.88;;;15.25;100.00
51099;BME280;37146;48.210;16.234;2023-07-02T02:18:09;97956.00;;;15.23;100.00
51099;BME280;37146;48.210;16.234;2023-07-02T02:20:35;97957.66;;;15.14;100.00
51099;BME280;37146;48.210;16.234;2023-07-02T02:23:00;97964.81;;;15.04;100.00
51099;BME280;37146;48.210;16.234;2023-07-02T02:25:25;97959.22;;;15.17;100.00
51099;BME280;37146;48.210;16.234;2023-07-02T02:27:51;97959.28;;;15.05;100.00
51099;BME280;37146;48.210;16.234;2023-07-02T02:30:16;97959.91;;;15.09;100.00
51099;BME280;37146;48.210;16.234;2023-07-02T02:32:41;97958.75;;;14.80;100.00
51099;BME280;37146;48.210;16.234;2023-07-02T02:35:06;97957.31;;;14.97;100.00
51099;BME280;37146;48.210;16.234;2023-07-02T02:37:33;97968.72;;;14.68;100.00
51099;BME280;37146;48.210;16.234;2023-07-02T02:39:58;97960.88;;;14.77;100.00
51099;BME280;37146;48.210;16.234;2023-07-02T02:42:24;97960.66;;;14.90;100.00
51099;BME280;37146;48.210;16.234;2023-07-02T02:44:50;97957.63;;;14.83;100.00
51099;BME280;37146;48.210;16.234;2023-07-02T02:47:15;97952.50;;;14.80;100.00
51099;BME280;37146;48.210;16.234;2023-07-02T02:49:40;97951.00;;;14.87;100.00
51099;BME280;37146;48.210;16.234;2023-07-02T02:52:05;97957.41;;;14.96;100.00
51099;BME280;37146;48.210;16.234;2023-07-02T02:54:31;97955.84;;;14.93;100.00
51099;BME280;37146;48.210;16.234;2023-07-02T02:56:56;97962.63;;;14.88;100.00
51099;BME280;37146;48.210;16.234;2023-07-02T02:59:21;97959.84;;;14.99;100.00
51099;BME280;37146;48.210;16.234;2023-07-02T03:01:46;97954.44;;;15.20;100.00
51099;BME280;37146;48.210;16.234;2023-07-02T03:04:12;97956.03;;;15.33;100.00
51099;BME280;37146;48.210;16.234;2023-07-02T03:06:37;97959.22;;;15.48;100.00
51099;BME280;37146;48.210;16.234;2023-07-02T03:09:02;97963.78;;;15.67;100.00
51099;BME280;37146;48.210;16.234;2023-07-02T03:11:27;97963.84;;;15.76;100.00
51099;BME280;37146;48.210;16.234;2023-07-02T03:13:53;97959.19;;;15.88;100.00
51099;BME280;37146;48.210;16.234;2023-07-02T03:16:18;97963.94;;;16.06;100.00
51099;BME280;37146;48.210;16.234;2023-07-02T03:18:43;97955.44;;;16.20;100.00
51099;BME280;37146;48.210;16.234;2023-07-02T03:21:08;97961.38;;;16.44;100.00
51099;BME280;37146;48.210;16.234;2023-07-02T03:23:33;97949.72;;;16.43;100.00
51099;BME280;37146;48.210;16.234;2023-07-02T03:25:59;97957.66;;;16.54;100.00
51099;BME280;37146;48.210;16.234;2023-07-02T03:28:24;97950.72;;;16.62;100.00
51099;BME280;37146;48.210;16.234;2023-07-02T03:30:49;97955.38;;;16.79;100.00
51099;BME280;37146;48.210;16.234;2023-07-02T03:33:14;97959.06;;;16.88;100.00
51099;BME280;37146;48.210;16.234;2023-07-02T03:35:40;97956.50;;;17.06;97.94
51099;BME280;37146;48.210;16.234;2023-07-02T03:38:05;97962.09;;;17.23;97.63
51099;BME280;37146;48.210;16.234;2023-07-02T03:40:33;97964.63;;;17.34;95.11
51099;BME280;37146;48.210;16.234;2023-07-02T03:42:58;97968.59;;;17.40;95.19
51099;BME280;37146;48.210;16.234;2023-07-02T03:45:24;97970.00;;;17.44;96.38
51099;BME280;37146;48.210;16.234;2023-07-02T03:47:49;97970.56;;;17.48;94.73
51099;BME280;37146;48.210;16.234;2023-07-02T03:50:14;97973.69;;;17.53;95.95
51099;BME280;37146;48.210;16.234;2023-07-02T03:52:39;97978.03;;;17.64;94.20
51099;BME280;37146;48.210;16.234;2023-07-02T03:55:05;97982.13;;;17.68;93.58
51099;BME280;37146;48.210;16.234;2023-07-02T03:57:30;97979.53;;;17.76;93.48
51099;BME280;37146;48.210;16.234;2023-07-02T03:59:56;97978.06;;;17.82;93.24
51099;BME280;37146;48.210;16.234;2023-07-02T04:02:21;97990.97;;;17.98;92.10
51099;BME280;37146;48.210;16.234;2023-07-02T04:04:46;97989.66;;;18.02;90.70
51099;BME280;37146;48.210;16.234;2023-07-02T04:07:12;97998.31;;;18.05;92.07
51099;BME280;37146;48.210;16.234;2023-07-02T04:09:37;97998.31;;;18.05;93.96
51099;BME280;37146;48.210;16.234;2023-07-02T04:12:02;98010.06;;;18.14;91.25
51099;BME280;37146;48.210;16.234;2023-07-02T04:14:27;98012.09;;;18.12;93.15
51099;BME280;37146;48.210;16.234;2023-07-02T04:16:52;98012.69;;;18.06;93.89
51099;BME280;37146;48.210;16.234;2023-07-02T04:19:18;98017.97;;;18.07;93.49
51099;BME280;37146;48.210;16.234;2023-07-02T04:21:43;98027.22;;;18.05;94.49
51099;BME280;37146;48.210;16.234;2023-07-02T04:24:08;98028.78;;;18.07;94.59
51099;BME280;37146;48.210;16.234;2023-07-02T04:26:33;98026.94;;;18.08;94.41
51099;BME280;37146;48.210;16.234;2023-07-02T04:28:59;98033.63;;;18.04;96.91
51099;BME280;37146;48.210;16.234;2023-07-02T04:31:24;98025.69;;;18.02;97.36
51099;BME280;37146;48.210;16.234;2023-07-02T04:33:49;98029.09;;;18.04;97.33
51099;BME280;37146;48.210;16.234;2023-07-02T04:36:14;98035.03;;;18.08;97.40
51099;BME280;37146;48.210;16.234;2023-07-02T04:38:40;98045.41;;;18.13;97.94
51099;BME280;37146;48.210;16.234;2023-07-02T04:41:05;98040.88;;;18.13;98.54
51099;BME280;37146;48.210;16.234;2023-07-02T04:43:31;98047.13;;;18.14;99.50
51099;BME280;37146;48.210;16.234;2023-07-02T04:45:56;98052.25;;;18.17;99.33
51099;BME280;37146;48.210;16.234;2023-07-02T04:48:22;98051.38;;;18.16;99.75
51099;BME280;37146;48.210;16.234;2023-07-02T04:50:47;98058.66;;;18.16;100.00
51099;BME280;37146;48.210;16.234;2023-07-02T04:53:12;98058.50;;;18.17;100.00
51099;BME280;37146;48.210;16.234;2023-07-02T04:55:38;98059.94;;;18.12;100.00
51099;BME280;37146;48.210;16.234;2023-07-02T04:58:03;98066.78;;;18.16;100.00
51099;BME280;37146;48.210;16.234;2023-07-02T05:00:28;98072.19;;;18.16;100.00
51099;BME280;37146;48.210;16.234;2023-07-02T05:02:53;98065.22;;;18.13;100.00
51099;BME280;37146;48.210;16.234;2023-07-02T05:05:18;98065.06;;;18.15;100.00
51099;BME280;37146;48.210;16.234;2023-07-02T05:07:44;98072.63;;;18.11;100.00
51099;BME280;37146;48.210;16.234;2023-07-02T05:10:09;98065.22;;;18.13;100.00
51099;BME280;37146;48.210;16.234;2023-07-02T05:12:34;98067.16;;;18.21;100.00
51099;BME280;37146;48.210;16.234;2023-07-02T05:14:59;98070.06;;;18.10;100.00
51099;BME280;37146;48.210;16.234;2023-07-02T05:17:25;98065.06;;;18.15;100.00
51099;BME280;37146;48.210;16.234;2023-07-02T05:19:50;98080.69;;;18.21;100.00
51099;BME280;37146;48.210;16.234;2023-07-02T05:22:15;98084.59;;;18.08;100.00
51099;BME280;37146;48.210;16.234;2023-07-02T05:24:40;98094.41;;;18.10;100.00
51099;BME280;37146;48.210;16.234;2023-07-02T05:27:06;98087.00;;;18.12;100.00
51099;BME280;37146;48.210;16.234;2023-07-02T05:29:31;98090.84;;;18.19;100.00
51099;BME280;37146;48.210;16.234;2023-07-02T05:31:56;98092.22;;;18.23;100.00
51099;BME280;37146;48.210;16.234;2023-07-02T05:34:21;98088.97;;;18.19;100.00
51099;BME280;37146;48.210;16.234;2023-07-02T05:36:47;98091.22;;;18.24;100.00
51099;BME280;37146;48.210;16.234;2023-07-02T05:39:12;98094.72;;;18.34;100.00
51099;BME280;37146;48.210;16.234;2023-07-02T05:41:37;98092.25;;;18.41;100.00
51099;BME280;37146;48.210;16.234;2023-07-02T05:44:03;98105.63;;;18.43;100.00
51099;BME280;37146;48.210;16.234;2023-07-02T05:46:28;98110.91;;;18.44;100.00
51099;BME280;37146;48.210;16.234;2023-07-02T05:48:53;98114.97;;;18.30;100.00
51099;BME280;37146;48.210;16.234;2023-07-02T05:51:22;98113.28;;;18.29;100.00
51099;BME280;37146;48.210;16.234;2023-07-02T05:53:47;98114.66;;;18.33;100.00
51099;BME280;37146;48.210;16.234;2023-07-02T05:56:13;98121.41;;;18.47;100.00
51099;BME280;37146;48.210;16.234;2023-07-02T05:58:38;98127.97;;;18.73;100.00
51099;BME280;37146;48.210;16.234;2023-07-02T06:01:03;98126.88;;;18.65;100.00
51099;BME280;37146;48.210;16.234;2023-07-02T06:03:30;98135.63;;;18.77;100.00
51099;BME280;37146;48.210;16.234;2023-07-02T06:05:55;98133.66;;;18.51;100.00
51099;BME280;37146;48.210;16.234;2023-07-02T06:08:20;98133.38;;;18.54;100.00
51099;BME280;37146;48.210;16.234;2023-07-02T06:10:46;98141.41;;;18.64;100.00
51099;BME280;37146;48.210;16.234;2023-07-02T06:13:12;98142.75;;;18.60;100.00
51099;BME280;37146;48.210;16.234;2023-07-02T06:15:37;98144.94;;;18.47;100.00
51099;BME280;37146;48.210;16.234;2023-07-02T06:18:02;98151.19;;;18.47;100.00
51099;BME280;37146;48.210;16.234;2023-07-02T06:20:27;98143.84;;;18.39;100.00
51099;BME280;37146;48.210;16.234;2023-07-02T06:22:53;98147.66;;;18.47;100.00
51099;BME280;37146;48.210;16.234;2023-07-02T06:25:20;98143.75;;;18.59;100.00
51099;BME280;37146;48.210;16.234;2023-07-02T06:27:45;98148.84;;;18.62;100.00
51099;BME280;37146;48.210;16.234;2023-07-02T06:30:10;98145.69;;;18.67;100.00
51099;BME280;37146;48.210;16.234;2023-07-02T06:32:36;98144.22;;;18.73;100.00
51099;BME280;37146;48.210;16.234;2023-07-02T06:35:02;98141.53;;;18.73;100.00
51099;BME280;37146;48.210;16.234;2023-07-02T06:37:27;98147.56;;;18.84;100.00
51099;BME280;37146;48.210;16.234;2023-07-02T06:39:52;98151.50;;;18.90;100.00
51099;BME280;37146;48.210;16.234;2023-07-02T06:42:17;98136.69;;;18.94;100.00
51099;BME280;37146;48.210;16.234;2023-07-02T06:44:42;98143.03;;;19.21;100.00
51099;BME280;37146;48.210;16.234;2023-07-02T06:47:08;98142.72;;;19.24;100.00
51099;BME280;37146;48.210;16.234;2023-07-02T06:49:34;98138.34;;;19.31;100.00
51099;BME280;37146;48.210;16.234;2023-07-02T06:51:59;98142.22;;;19.47;100.00
51099;BME280;37146;48.210;16.234;2023-07-02T06:54:25;98140.00;;;19.69;100.00
51099;BME280;37146;48.210;16.234;2023-07-02T06:56:50;98134.13;;;20.00;100.00
51099;BME280;37146;48.210;16.234;2023-07-02T06:59:19;98130.22;;;20.37;100.00
51099;BME280;37146;48.210;16.234;2023-07-02T07:01:45;98139.59;;;20.43;99.43
51099;BME280;37146;48.210;16.234;2023-07-02T07:04:10;98132.28;;;20.43;98.96
51099;BME280;37146;48.210;16.234;2023-07-02T07:06:36;98137.97;;;20.66;98.17
51099;BME280;37146;48.210;16.234;2023-07-02T07:09:02;98144.59;;;20.72;98.28
51099;BME280;37146;48.210;16.234;2023-07-02T07:11:28;98146.94;;;20.59;94.74
51099;BME280;37146;48.210;16.234;2023-07-02T07:13:53;98142.94;;;20.79;94.83
51099;BME280;37146;48.210;16.234;2023-07-02T07:16:18;98144.84;;;20.87;93.09
51099;BME280;37146;48.210;16.234;2023-07-02T07:18:44;98148.94;;;20.48;95.67
51099;BME280;37146;48.210;16.234;2023-07-02T07:21:09;98144.28;;;20.32;97.02
51099;BME280;37146;48.210;16.234;2023-07-02T07:23:34;98147.00;;;20.32;98.27
51099;BME280;37146;48.210;16.234;2023-07-02T07:26:00;98137.69;;;20.43;97.47
51099;BME280;37146;48.210;16.234;2023-07-02T07:28:25;98150.28;;;20.44;96.55
51099;BME280;37146;48.210;16.234;2023-07-02T07:30:50;98139.41;;;21.12;93.02
51099;BME280;37146;48.210;16.234;2023-07-02T07:33:15;98143.66;;;21.06;95.55
51099;BME280;37146;48.210;16.234;2023-07-02T07:35:41;98149.78;;;21.00;93.09
51099;BME280;37146;48.210;16.234;2023-07-02T07:38:06;98139.88;;;20.74;94.17
51099;BME280;37146;48.210;16.234;2023-07-02T07:40:31;98137.00;;;20.84;94.11
51099;BME280;37146;48.210;16.234;2023-07-02T07:42:56;98152.63;;;20.90;93.07
51099;BME280;37146;48.210;16.234;2023-07-02T07:45:21;98144.59;;;20.72;91.55
51099;BME280;37146;48.210;16.234;2023-07-02T07:47:47;98143.28;;;20.76;91.68
51099;BME280;37146;48.210;16.234;2023-07-02T07:50:12;98149.41;;;20.78;92.19
51099;BME280;37146;48.210;16.234;2023-07-02T07:52:38;98157.94;;;20.92;91.28
51099;BME280;37146;48.210;16.234;2023-07-02T07:55:04;98142.31;;;20.94;89.72
51099;BME280;37146;48.210;16.234;2023-07-02T07:57:29;98139.59;;;20.94;89.38
51099;BME280;37146;48.210;16.234;2023-07-02T07:59:54;98142.13;;;21.12;87.88
51099;BME280;37146;48.210;16.234;2023-07-02T08:02:19;98135.88;;;21.44;87.67
51099;BME280;37146;48.210;16.234;2023-07-02T08:04:45;98140.09;;;21.47;87.61
51099;BME280;37146;48.210;16.234;2023-07-02T08:07:10;98132.13;;;21.45;85.94
51099;BME280;37146;48.210;16.234;2023-07-02T08:09:35;98128.75;;;21.68;88.19
51099;BME280;37146;48.210;16.234;2023-07-02T08:12:00;98121.75;;;21.49;84.63
51099;BME280;37146;48.210;16.234;2023-07-02T08:14:26;98118.72;;;21.60;81.70
51099;BME280;37146;48.210;16.234;2023-07-02T08:16:51;98109.16;;;21.73;81.74
51099;BME280;37146;48.210;16.234;2023-07-02T08:19:16;98112.00;;;21.96;82.04
51099;BME280;37146;48.210;16.234;2023-07-02T08:21:42;98113.63;;;22.22;80.43
51099;BME280;37146;48.210;16.234;2023-07-02T08:24:07;98123.03;;;22.03;80.96
51099;BME280;37146;48.210;16.234;2023-07-02T08:26:32;98128.03;;;21.41;82.58
51099;BME280;37146;48.210;16.234;2023-07-02T08:28:57;98126.16;;;21.58;83.56
51099;BME280;37146;48.210;16.234;2023-07-02T08:31:23;98129.91;;;21.57;82.31
51099;BME280;37146;48.210;16.234;2023-07-02T08:33:48;98125.34;;;21.66;82.93
51099;BME280;37146;48.210;16.234;2023-07-02T08:36:13;98130.53;;;22.01;79.62
51099;BME280;37146;48.210;16.234;2023-07-02T08:38:39;98127.19;;;22.47;79.89
51099;BME280;37146;48.210;16.234;2023-07-02T08:41:07;98120.41;;;22.66;79.12
51099;BME280;37146;48.210;16.234;2023-07-02T08:43:32;98129.41;;;22.75;77.99
51099;BME280;37146;48.210;16.234;2023-07-02T08:45:57;98130.94;;;23.00;76.63
51099;BME280;37146;48.210;16.234;2023-07-02T08:48:22;98123.50;;;23.17;75.48
51099;BME280;37146;48.210;16.234;2023-07-02T08:50:49;98124.09;;;23.05;72.25
51099;BME280;37146;48.210;16.234;2023-07-02T08:53:15;98127.94;;;23.42;72.47
51099;BME280;37146;48.210;16.234;2023-07-02T08:55:41;98120.66;;;23.34;73.64
51099;BME280;37146;48.210;16.234;2023-07-02T08:58:07;98127.34;;;23.31;73.05
51099;BME280;37146;48.210;16.234;2023-07-02T09:00:32;98131.22;;;23.37;72.94
51099;BME280;37146;48.210;16.234;2023-07-02T09:03:14;98132.19;;;23.59;70.77
51099;BME280;37146;48.210;16.234;2023-07-02T09:05:58;98134.28;;;23.57;71.22
51099;BME280;37146;48.210;16.234;2023-07-02T09:08:24;98138.81;;;24.18;69.60
51099;BME280;37146;48.210;16.234;2023-07-02T09:10:49;98125.78;;;24.50;66.90
51099;BME280;37146;48.210;16.234;2023-07-02T09:13:15;98119.34;;;24.73;66.01
51099;BME280;37146;48.210;16.234;2023-07-02T09:15:40;98114.63;;;24.67;66.30
51099;BME280;37146;48.210;16.234;2023-07-02T09:18:18;98117.03;;;24.92;65.72
51099;BME280;37146;48.210;16.234;2023-07-02T09:20:44;98123.66;;;24.82;63.26
51099;BME280;37146;48.210;16.234;2023-07-02T09:23:09;98124.47;;;24.46;65.60
51099;BME280;37146;48.210;16.234;2023-07-02T09:25:38;98125.03;;;24.27;66.79
51099;BME280;37146;48.210;16.234;2023-07-02T09:28:14;98121.66;;;24.24;66.73
51099;BME280;37146;48.210;16.234;2023-07-02T09:30:48;98135.72;;;23.83;67.51
51099;BME280;37146;48.210;16.234;2023-07-02T09:33:15;98135.97;;;23.97;67.81
51099;BME280;37146;48.210;16.234;2023-07-02T09:35:40;98131.63;;;24.17;65.94
51099;BME280;37146;48.210;16.234;2023-07-02T09:38:05;98140.94;;;23.93;67.38
51099;BME280;37146;48.210;16.234;2023-07-02T09:40:31;98145.84;;;23.59;66.14
51099;BME280;37146;48.210;16.234;2023-07-02T09:42:56;98141.50;;;23.50;66.63
51099;BME280;37146;48.210;16.234;2023-07-02T09:45:22;98150.13;;;23.39;69.60
51099;BME280;37146;48.210;16.234;2023-07-02T09:47:48;98154.66;;;23.46;70.15
51099;BME280;37146;48.210;16.234;2023-07-02T09:50:14;98159.09;;;22.69;70.81
51099;BME280;37146;48.210;16.234;2023-07-02T09:52:41;98160.75;;;23.02;71.90
51099;BME280;37146;48.210;16.234;2023-07-02T09:55:07;98168.03;;;22.78;71.47
51099;BME280;37146;48.210;16.234;2023-07-02T09:57:32;98163.75;;;22.84;73.14
51099;BME280;37146;48.210;16.234;2023-07-02T10:00:01;98160.72;;;22.79;72.06
51099;BME280;37146;48.210;16.234;2023-07-02T10:02:26;98160.66;;;23.19;70.41
51099;BME280;37146;48.210;16.234;2023-07-02T10:04:51;98161.72;;;23.79;69.45
51099;BME280;37146;48.210;16.234;2023-07-02T10:07:27;98168.75;;;23.97;65.43
51099;BME280;37146;48.210;16.234;2023-07-02T10:09:52;98166.59;;;24.52;66.46
51099;BME280;37146;48.210;16.234;2023-07-02T10:12:27;98163.78;;;24.45;64.93
51099;BME280;37146;48.210;16.234;2023-07-02T10:14:56;98170.44;;;24.13;65.02
51099;BME280;37146;48.210;16.234;2023-07-02T10:19:52;98174.31;;;24.03;66.97
51099;BME280;37146;48.210;16.234;2023-07-02T10:22:18;98168.34;;;24.90;65.42
51099;BME280;37146;48.210;16.234;2023-07-02T10:24:50;98181.00;;;24.91;62.86
51099;BME280;37146;48.210;16.234;2023-07-02T10:27:17;98156.25;;;24.47;63.03
51099;BME280;37146;48.210;16.234;2023-07-02T10:29:48;98159.78;;;24.63;63.07
51099;BME280;37146;48.210;16.234;2023-07-02T10:32:14;98165.00;;;24.58;62.14
51099;BME280;37146;48.210;16.234;2023-07-02T10:34:50;98175.59;;;25.56;60.41
51099;BME280;37146;48.210;16.234;2023-07-02T10:37:15;98164.09;;;25.24;59.65
51099;BME280;37146;48.210;16.234;2023-07-02T10:39:41;98166.69;;;25.32;61.16
51099;BME280;37146;48.210;16.234;2023-07-02T10:42:09;98160.31;;;25.68;59.76
51099;BME280;37146;48.210;16.234;2023-07-02T10:44:45;98160.94;;;25.70;59.14
51099;BME280;37146;48.210;16.234;2023-07-02T10:47:11;98164.31;;;24.55;60.27
51099;BME280;37146;48.210;16.234;2023-07-02T10:49:36;98157.91;;;24.03;63.10
51099;BME280;37146;48.210;16.234;2023-07-02T10:52:02;98189.13;;;23.47;63.83
51099;BME280;37146;48.210;16.234;2023-07-02T10:54:47;98182.16;;;23.45;63.58
51099;BME280;37146;48.210;16.234;2023-07-02T10:57:13;98174.81;;;23.22;63.25
51099;BME280;37146;48.210;16.234;2023-07-02T10:59:38;98178.94;;;23.80;63.29
51099;BME280;37146;48.210;16.234;2023-07-02T11:02:03;98175.19;;;23.81;64.06
51099;BME280;37146;48.210;16.234;2023-07-02T11:04:30;98176.31;;;24.24;64.88
51099;BME280;37146;48.210;16.234;2023-07-02T11:06:55;98175.19;;;24.34;63.51
51099;BME280;37146;48.210;16.234;2023-07-02T11:09:20;98171.75;;;24.62;61.37
51099;BME280;37146;48.210;16.234;2023-07-02T11:11:53;98182.81;;;24.38;61.02
51099;BME280;37146;48.210;16.234;2023-07-02T11:14:32;98173.75;;;26.13;60.03
51099;BME280;37146;48.210;16.234;2023-07-02T11:16:58;98172.94;;;26.19;56.87
51099;BME280;37146;48.210;16.234;2023-07-02T11:19:24;98180.53;;;26.17;56.63
51099;BME280;37146;48.210;16.234;2023-07-02T11:21:50;98179.75;;;24.93;60.80
51099;BME280;37146;48.210;16.234;2023-07-02T11:24:16;98178.75;;;24.49;60.31
51099;BME280;37146;48.210;16.234;2023-07-02T11:26:50;98190.41;;;26.12;57.02
51099;BME280;37146;48.210;16.234;2023-07-02T11:29:18;98187.75;;;26.03;55.55
51099;BME280;37146;48.210;16.234;2023-07-02T11:31:43;98183.13;;;25.32;56.17
51099;BME280;37146;48.210;16.234;2023-07-02T11:34:17;98190.72;;;24.63;60.02
51099;BME280;37146;48.210;16.234;2023-07-02T11:36:42;98202.88;;;24.31;59.72
51099;BME280;37146;48.210;16.234;2023-07-02T11:39:08;98191.47;;;24.12;60.05
51099;BME280;37146;48.210;16.234;2023-07-02T11:41:36;98185.00;;;23.90;60.70
51099;BME280;37146;48.210;16.234;2023-07-02T11:44:01;98193.31;;;23.97;61.29
51099;BME280;37146;48.210;16.234;2023-07-02T11:46:26;98198.44;;;24.15;62.28
51099;BME280;37146;48.210;16.234;2023-07-02T11:48:52;98204.22;;;24.35;60.30
51099;BME280;37146;48.210;16.234;2023-07-02T11:51:17;98223.78;;;24.23;59.90
51099;BME280;37146;48.210;16.234;2023-07-02T11:53:42;98212.09;;;23.53;60.79
51099;BME280;37146;48.210;16.234;2023-07-02T11:56:08;98210.41;;;23.52;61.10
51099;BME280;37146;48.210;16.234;2023-07-02T11:58:34;98208.63;;;23.05;62.45
51099;BME280;37146;48.210;16.234;2023-07-02T12:00:59;98207.13;;;23.80;62.67
51099;BME280;37146;48.210;16.234;2023-07-02T12:03:25;98213.16;;;23.90;60.67
51099;BME280;37146;48.210;16.234;2023-07-02T12:05:50;98208.53;;;24.14;59.35
51099;BME280;37146;48.210;16.234;2023-07-02T12:08:16;98203.44;;;25.23;57.97
51099;BME280;37146;48.210;16.234;2023-07-02T12:10:41;98206.75;;;25.55;57.71
51099;BME280;37146;48.210;16.234;2023-07-02T12:13:06;98202.41;;;25.89;55.70
51099;BME280;37146;48.210;16.234;2023-07-02T12:15:32;98207.28;;;25.65;56.09
51099;BME280;37146;48.210;16.234;2023-07-02T12:17:57;98210.38;;;25.62;54.59
51099;BME280;37146;48.210;16.234;2023-07-02T12:20:22;98205.94;;;25.83;55.62
51099;BME280;37146;48.210;16.234;2023-07-02T12:22:47;98209.34;;;25.63;56.98
51099;BME280;37146;48.210;16.234;2023-07-02T12:25:12;98204.69;;;25.63;55.74
51099;BME280;37146;48.210;16.234;2023-07-02T12:27:38;98201.75;;;25.22;56.46
51099;BME280;37146;48.210;16.234;2023-07-02T12:30:03;98209.19;;;24.91;57.38
51099;BME280;37146;48.210;16.234;2023-07-02T12:32:29;98218.81;;;24.57;57.24
51099;BME280;37146;48.210;16.234;2023-07-02T12:34:55;98218.13;;;24.40;58.28
51099;BME280;37146;48.210;16.234;2023-07-02T12:37:20;98219.25;;;24.61;58.50
51099;BME280;37146;48.210;16.234;2023-07-02T12:39:46;98221.25;;;24.67;58.74
51099;BME280;37146;48.210;16.234;2023-07-02T12:42:11;98211.25;;;24.89;57.63